createdAt,value
2022-11-11T00:00:17.923Z,0.00
2022-11-11T00:01:17.893Z,0.00
2022-11-11T00:02:17.888Z,0.00
2022-11-11T00:03:22.542Z,0.00
2022-11-11T00:04:18.880Z,0.00
2022-11-11T00:05:17.869Z,0.00
2022-11-11T00:06:17.859Z,0.00
2022-11-11T00:07:17.841Z,0.00
2022-11-11T00:08:17.849Z,0.00
2022-11-11T00:09:17.810Z,0.00
2022-11-11T00:10:17.801Z,0.00
2022-11-11T00:11:17.781Z,0.00
2022-11-11T00:12:19.104Z,0.00
2022-11-11T00:13:17.769Z,0.00
2022-11-11T00:14:17.793Z,0.00
2022-11-11T00:15:17.757Z,0.00
2022-11-11T00:16:17.721Z,0.00
2022-11-11T00:17:17.757Z,0.00
2022-11-11T00:18:17.714Z,0.00
2022-11-11T00:19:17.702Z,0.00
2022-11-11T00:20:18.932Z,0.00
2022-11-11T00:21:17.690Z,0.00
2022-11-11T00:22:17.661Z,0.00
2022-11-11T00:23:17.675Z,0.00
2022-11-11T00:24:17.683Z,0.00
2022-11-11T00:25:17.705Z,0.00
2022-11-11T00:26:38.536Z,0.00
2022-11-11T00:27:18.603Z,0.00
2022-11-11T00:28:17.610Z,0.00
2022-11-11T00:29:17.604Z,0.00
2022-11-11T00:30:17.564Z,0.00
2022-11-11T00:31:17.540Z,0.00
2022-11-11T00:32:17.607Z,0.00
2022-11-11T00:33:17.591Z,0.00
2022-11-11T00:34:17.540Z,0.00
2022-11-11T00:35:17.566Z,0.00
2022-11-11T00:36:17.513Z,0.00
2022-11-11T00:37:17.521Z,0.00
2022-11-11T00:38:17.560Z,0.00
2022-11-11T00:39:17.512Z,0.00
2022-11-11T00:40:17.649Z,0.00
2022-11-11T00:41:17.556Z,0.00
2022-11-11T00:42:17.446Z,0.00
2022-11-11T00:43:17.508Z,0.00
2022-11-11T00:44:17.457Z,0.00
2022-11-11T00:45:17.606Z,0.00
2022-11-11T00:46:17.391Z,0.00
2022-11-11T00:47:17.362Z,0.00
2022-11-11T00:48:17.381Z,0.00
2022-11-11T00:49:17.343Z,0.00
2022-11-11T00:50:17.404Z,0.00
2022-11-11T00:51:17.411Z,0.00
2022-11-11T00:52:17.324Z,0.00
2022-11-11T00:53:20.499Z,0.00
2022-11-11T00:54:18.333Z,0.00
2022-11-11T00:55:17.346Z,0.00
2022-11-11T00:56:17.284Z,0.00
2022-11-11T00:57:17.333Z,0.00
2022-11-11T00:58:17.346Z,0.00
2022-11-11T00:59:17.328Z,0.00
2022-11-11T01:00:17.255Z,0.00
2022-11-11T01:01:17.370Z,0.00
2022-11-11T01:02:17.279Z,0.00
2022-11-11T01:03:17.223Z,0.00
2022-11-11T01:04:17.182Z,0.00
2022-11-11T01:05:17.176Z,0.00
2022-11-11T01:06:17.217Z,0.00
2022-11-11T01:07:17.212Z,0.00
2022-11-11T01:08:17.241Z,0.00
2022-11-11T01:09:17.244Z,0.00
2022-11-11T01:10:17.119Z,0.00
2022-11-11T01:11:17.103Z,0.00
2022-11-11T01:12:17.095Z,0.00
2022-11-11T01:13:17.103Z,0.00
2022-11-11T01:14:17.067Z,0.00
2022-11-11T01:15:17.103Z,0.00
2022-11-11T01:16:17.072Z,0.00
2022-11-11T01:17:17.179Z,0.00
2022-11-11T01:18:17.132Z,0.00
2022-11-11T01:19:17.024Z,0.00
2022-11-11T01:20:17.121Z,0.00
2022-11-11T01:21:17.069Z,0.00
2022-11-11T01:22:17.078Z,0.00
2022-11-11T01:23:17.105Z,0.00
2022-11-11T01:24:17.066Z,0.00
2022-11-11T01:25:17.120Z,0.00
2022-11-11T01:26:16.970Z,0.00
2022-11-11T01:27:17.016Z,0.00
2022-11-11T01:28:16.923Z,0.00
2022-11-11T01:29:17.015Z,0.00
2022-11-11T01:30:16.985Z,0.00
2022-11-11T01:31:16.892Z,0.00
2022-11-11T01:32:16.894Z,0.00
2022-11-11T01:33:16.963Z,0.00
2022-11-11T01:34:16.944Z,0.00
2022-11-11T01:35:16.836Z,0.00
2022-11-11T01:36:16.869Z,0.00
2022-11-11T01:37:16.852Z,0.00
2022-11-11T01:38:16.925Z,0.00
2022-11-11T01:39:16.836Z,0.00
2022-11-11T01:40:16.774Z,0.00
2022-11-11T01:41:16.812Z,0.00
2022-11-11T01:42:16.746Z,0.00
2022-11-11T01:43:16.804Z,0.00
2022-11-11T01:44:16.862Z,0.00
2022-11-11T01:45:16.801Z,0.00
2022-11-11T01:46:16.796Z,0.00
2022-11-11T01:47:16.804Z,0.00
2022-11-11T01:48:24.726Z,0.00
2022-11-11T01:49:17.746Z,0.00
2022-11-11T01:50:16.727Z,0.00
2022-11-11T01:51:16.660Z,0.00
2022-11-11T01:52:16.784Z,0.00
2022-11-11T01:53:16.886Z,0.00
2022-11-11T01:54:16.731Z,0.00
2022-11-11T01:55:16.744Z,0.00
2022-11-11T01:56:16.600Z,0.00
2022-11-11T01:57:16.654Z,0.00
2022-11-11T01:58:16.576Z,0.00
2022-11-11T01:59:16.703Z,0.00
2022-11-11T02:00:16.603Z,0.00
2022-11-11T02:01:16.578Z,0.00
2022-11-11T02:02:16.688Z,0.00
2022-11-11T02:03:16.705Z,0.00
2022-11-11T02:04:16.548Z,0.00
2022-11-11T02:05:16.617Z,0.00
2022-11-11T02:06:16.637Z,0.00
2022-11-11T02:07:16.588Z,0.00
2022-11-11T02:08:16.457Z,0.00
2022-11-11T02:09:16.558Z,0.00
2022-11-11T02:10:16.492Z,0.00
2022-11-11T02:11:16.436Z,0.00
2022-11-11T02:12:16.409Z,0.00
2022-11-11T02:13:16.611Z,0.00
2022-11-11T02:14:16.459Z,0.00
2022-11-11T02:15:16.512Z,0.00
2022-11-11T02:16:16.394Z,0.00
2022-11-11T02:17:16.372Z,0.00
2022-11-11T02:18:16.355Z,0.00
2022-11-11T02:19:16.374Z,0.00
2022-11-11T02:20:16.333Z,0.00
2022-11-11T02:21:16.328Z,0.00
2022-11-11T02:22:16.438Z,0.00
2022-11-11T02:23:16.426Z,0.00
2022-11-11T02:24:16.329Z,0.00
2022-11-11T02:25:16.328Z,0.00
2022-11-11T02:26:16.269Z,0.00
2022-11-11T02:27:16.300Z,0.00
2022-11-11T02:28:16.231Z,0.00
2022-11-11T02:29:16.412Z,0.00
2022-11-11T02:30:16.287Z,0.00
2022-11-11T02:31:16.252Z,0.00
2022-11-11T02:32:16.197Z,0.00
2022-11-11T02:33:16.243Z,0.00
2022-11-11T02:34:16.316Z,0.00
2022-11-11T02:35:16.192Z,0.00
2022-11-11T02:36:16.333Z,0.00
2022-11-11T02:37:16.272Z,0.00
2022-11-11T02:38:16.147Z,0.00
2022-11-11T02:39:16.117Z,0.00
2022-11-11T02:40:16.332Z,0.00
2022-11-11T02:41:16.120Z,0.00
2022-11-11T02:42:16.223Z,0.00
2022-11-11T02:43:16.188Z,0.00
2022-11-11T02:44:16.221Z,0.00
2022-11-11T02:45:16.235Z,0.00
2022-11-11T02:46:16.162Z,0.00
2022-11-11T02:47:16.029Z,0.00
2022-11-11T02:48:16.052Z,0.00
2022-11-11T02:49:16.140Z,0.00
2022-11-11T02:50:15.982Z,0.00
2022-11-11T02:51:16.061Z,0.00
2022-11-11T02:52:16.161Z,0.00
2022-11-11T02:53:16.112Z,0.00
2022-11-11T02:54:15.962Z,0.00
2022-11-11T02:55:16.100Z,0.00
2022-11-11T02:56:16.026Z,0.00
2022-11-11T02:57:16.054Z,0.00
2022-11-11T02:58:15.913Z,0.00
2022-11-11T02:59:16.015Z,0.00
2022-11-11T03:00:15.924Z,0.00
2022-11-11T03:01:15.883Z,0.00
2022-11-11T03:02:16.150Z,0.00
2022-11-11T03:03:16.055Z,0.00
2022-11-11T03:04:15.912Z,0.00
2022-11-11T03:05:16.030Z,0.00
2022-11-11T03:06:15.903Z,0.00
2022-11-11T03:07:15.871Z,0.00
2022-11-11T03:08:15.957Z,0.00
2022-11-11T03:09:15.831Z,0.00
2022-11-11T03:10:15.808Z,0.00
2022-11-11T03:11:15.875Z,0.00
2022-11-11T03:12:15.886Z,0.00
2022-11-11T03:13:15.796Z,0.00
2022-11-11T03:14:15.831Z,0.00
2022-11-11T03:15:15.766Z,0.00
2022-11-11T03:16:15.793Z,0.00
2022-11-11T03:17:15.786Z,0.00
2022-11-11T03:18:15.809Z,0.00
2022-11-11T03:19:15.762Z,0.00
2022-11-11T03:20:15.682Z,0.00
2022-11-11T03:22:24.193Z,0.00
2022-11-11T03:22:53.788Z,0.00
2022-11-11T03:23:16.634Z,0.00
2022-11-11T03:24:15.602Z,0.00
2022-11-11T03:25:15.609Z,0.00
2022-11-11T03:26:15.583Z,0.00
2022-11-11T03:27:15.602Z,0.00
2022-11-11T03:28:15.554Z,0.00
2022-11-11T03:29:15.542Z,0.00
2022-11-11T03:30:15.535Z,0.00
2022-11-11T03:31:15.544Z,0.00
2022-11-11T03:32:15.522Z,0.00
2022-11-11T03:33:15.521Z,0.00
2022-11-11T03:34:15.490Z,0.00
2022-11-11T03:35:15.504Z,0.00
2022-11-11T03:36:15.478Z,0.00
2022-11-11T03:37:15.462Z,0.00
2022-11-11T03:38:15.435Z,0.00
2022-11-11T03:39:15.499Z,0.00
2022-11-11T03:40:15.418Z,0.00
2022-11-11T03:41:15.522Z,0.00
2022-11-11T03:42:15.394Z,0.00
2022-11-11T03:43:15.392Z,0.00
2022-11-11T03:44:15.395Z,0.00
2022-11-11T03:45:15.362Z,0.00
2022-11-11T03:46:15.352Z,0.00
2022-11-11T03:47:15.603Z,0.00
2022-11-11T03:48:15.331Z,0.00
2022-11-11T03:49:15.344Z,0.00
2022-11-11T03:50:15.323Z,0.00
2022-11-11T03:51:15.359Z,0.00
2022-11-11T03:52:15.423Z,0.00
2022-11-11T03:53:15.322Z,0.00
2022-11-11T03:54:15.362Z,0.00
2022-11-11T03:55:15.267Z,0.00
2022-11-11T03:56:15.396Z,0.00
2022-11-11T03:57:15.247Z,0.00
2022-11-11T03:58:15.211Z,0.00
2022-11-11T03:59:15.215Z,0.00
2022-11-11T04:00:15.270Z,0.00
2022-11-11T04:01:15.192Z,0.00
2022-11-11T04:02:15.262Z,0.00
2022-11-11T04:03:15.172Z,0.00
2022-11-11T04:04:15.151Z,0.00
2022-11-11T04:05:15.155Z,0.00
2022-11-11T04:06:15.136Z,0.00
2022-11-11T04:07:15.185Z,0.00
2022-11-11T04:08:15.116Z,0.00
2022-11-11T04:09:15.112Z,0.00
2022-11-11T04:10:15.076Z,0.00
2022-11-11T04:11:15.097Z,0.00
2022-11-11T04:12:15.064Z,0.00
2022-11-11T04:13:15.076Z,0.00
2022-11-11T04:14:15.032Z,0.00
2022-11-11T04:15:15.032Z,0.00
2022-11-11T04:16:15.041Z,0.00
2022-11-11T04:17:15.036Z,0.00
2022-11-11T04:18:15.132Z,0.00
2022-11-11T04:19:14.984Z,0.00
2022-11-11T04:20:14.992Z,0.00
2022-11-11T04:21:14.963Z,0.00
2022-11-11T04:22:14.948Z,0.00
2022-11-11T04:23:14.968Z,0.00
2022-11-11T04:24:14.956Z,0.00
2022-11-11T04:25:14.934Z,0.00
2022-11-11T04:26:14.893Z,0.00
2022-11-11T04:27:14.913Z,0.00
2022-11-11T04:28:14.884Z,0.00
2022-11-11T04:29:14.876Z,0.00
2022-11-11T04:30:14.865Z,0.00
2022-11-11T04:31:14.849Z,0.00
2022-11-11T04:32:14.860Z,0.00
2022-11-11T04:33:14.837Z,0.00
2022-11-11T04:34:14.840Z,0.00
2022-11-11T04:35:14.828Z,0.00
2022-11-11T04:36:14.800Z,0.00
2022-11-11T04:37:14.837Z,0.00
2022-11-11T04:38:14.776Z,0.00
2022-11-11T04:39:14.764Z,0.00
2022-11-11T04:40:14.750Z,0.00
2022-11-11T04:41:14.757Z,0.00
2022-11-11T04:42:14.725Z,0.00
2022-11-11T04:43:14.736Z,0.00
2022-11-11T04:44:14.707Z,0.00
2022-11-11T04:45:14.698Z,0.00
2022-11-11T04:46:14.684Z,0.00
2022-11-11T04:47:14.677Z,0.00
2022-11-11T04:48:14.657Z,0.00
2022-11-11T04:49:14.689Z,0.00
2022-11-11T04:50:14.626Z,0.00
2022-11-11T04:51:14.626Z,0.00
2022-11-11T04:52:14.609Z,0.00
2022-11-11T04:53:14.637Z,0.00
2022-11-11T04:54:14.577Z,0.00
2022-11-11T04:55:19.131Z,0.00
2022-11-11T04:56:15.564Z,0.00
2022-11-11T04:57:14.556Z,0.00
2022-11-11T04:58:14.527Z,0.00
2022-11-11T04:59:14.571Z,0.00
2022-11-11T05:00:14.525Z,0.00
2022-11-11T05:01:14.594Z,0.00
2022-11-11T05:02:14.493Z,0.00
2022-11-11T05:03:14.488Z,0.00
2022-11-11T05:04:14.465Z,0.00
2022-11-11T05:05:14.504Z,0.00
2022-11-11T05:06:14.444Z,0.00
2022-11-11T05:07:14.514Z,0.00
2022-11-11T05:08:14.429Z,0.00
2022-11-11T05:09:14.418Z,0.00
2022-11-11T05:10:14.424Z,0.00
2022-11-11T05:11:14.417Z,0.00
2022-11-11T05:12:14.385Z,0.00
2022-11-11T05:13:17.282Z,0.00
2022-11-11T05:14:15.365Z,0.00
2022-11-11T05:15:14.369Z,0.00
2022-11-11T05:16:14.357Z,0.00
2022-11-11T05:17:14.347Z,0.00
2022-11-11T05:18:14.326Z,0.00
2022-11-11T05:19:14.304Z,0.00
2022-11-11T05:20:14.325Z,0.00
2022-11-11T05:21:14.290Z,0.00
2022-11-11T05:22:14.308Z,0.00
2022-11-11T05:23:14.598Z,0.00
2022-11-11T05:24:14.257Z,0.00
2022-11-11T05:25:14.240Z,0.00
2022-11-11T05:26:14.237Z,0.00
2022-11-11T05:27:14.249Z,0.00
2022-11-11T05:28:14.208Z,0.00
2022-11-11T05:29:14.189Z,0.00
2022-11-11T05:30:14.190Z,0.00
2022-11-11T05:31:14.194Z,0.00
2022-11-11T05:32:14.178Z,0.00
2022-11-11T05:33:14.137Z,0.00
2022-11-11T05:34:14.156Z,0.00
2022-11-11T05:35:14.141Z,0.00
2022-11-11T05:36:14.153Z,0.00
2022-11-11T05:37:14.132Z,0.00
2022-11-11T05:38:14.097Z,0.00
2022-11-11T05:39:14.089Z,0.00
2022-11-11T05:40:14.100Z,0.00
2022-11-11T05:41:14.072Z,0.00
2022-11-11T05:42:14.056Z,0.00
2022-11-11T05:43:14.517Z,0.00
2022-11-11T05:44:14.061Z,0.00
2022-11-11T05:45:14.050Z,0.00
2022-11-11T05:46:14.008Z,0.00
2022-11-11T05:47:14.011Z,0.00
2022-11-11T05:48:13.977Z,0.00
2022-11-11T05:49:13.996Z,0.00
2022-11-11T05:50:13.969Z,0.00
2022-11-11T05:51:13.949Z,0.00
2022-11-11T05:52:13.957Z,0.00
2022-11-11T05:53:13.916Z,0.00
2022-11-11T05:54:13.930Z,0.00
2022-11-11T05:55:13.929Z,0.00
2022-11-11T05:56:13.909Z,0.00
2022-11-11T05:57:13.895Z,0.00
2022-11-11T05:58:13.892Z,0.00
2022-11-11T05:59:13.858Z,0.00
2022-11-11T06:00:13.865Z,0.00
2022-11-11T06:01:13.831Z,0.00
2022-11-11T06:02:13.861Z,0.00
2022-11-11T06:03:13.814Z,0.00
2022-11-11T06:04:18.137Z,0.00
2022-11-11T06:05:13.790Z,0.00
2022-11-11T06:06:13.821Z,0.00
2022-11-11T06:07:13.795Z,0.00
2022-11-11T06:08:13.770Z,0.00
2022-11-11T06:09:13.749Z,0.00
2022-11-11T06:10:13.738Z,0.00
2022-11-11T06:11:13.717Z,0.00
2022-11-11T06:12:13.721Z,0.00
2022-11-11T06:13:13.697Z,0.00
2022-11-11T06:14:13.690Z,0.00
2022-11-11T06:15:13.701Z,0.00
2022-11-11T06:16:13.705Z,0.00
2022-11-11T06:17:13.678Z,0.00
2022-11-11T06:18:13.646Z,4.00
2022-11-11T06:19:13.629Z,4.00
2022-11-11T06:20:13.622Z,4.00
2022-11-11T06:21:13.617Z,0.00
2022-11-11T06:22:13.605Z,4.00
2022-11-11T06:23:13.749Z,4.00
2022-11-11T06:24:13.577Z,8.00
2022-11-11T06:25:13.577Z,4.00
2022-11-11T06:26:13.568Z,8.00
2022-11-11T06:27:13.539Z,4.00
2022-11-11T06:28:13.541Z,8.00
2022-11-11T06:29:13.519Z,8.00
2022-11-11T06:30:44.284Z,8.00
2022-11-11T06:31:14.502Z,8.00
2022-11-11T06:32:13.658Z,12.00
2022-11-11T06:33:13.477Z,12.00
2022-11-11T06:34:13.462Z,12.00
2022-11-11T06:35:13.451Z,16.00
2022-11-11T06:36:13.442Z,16.00
2022-11-11T06:37:13.425Z,20.00
2022-11-11T06:38:13.453Z,20.00
2022-11-11T06:39:13.405Z,20.00
2022-11-11T06:40:16.280Z,24.00
2022-11-11T06:41:14.398Z,24.00
2022-11-11T06:42:13.438Z,28.00
2022-11-11T06:43:13.351Z,32.00
2022-11-11T06:44:13.353Z,32.00
2022-11-11T06:45:13.350Z,32.00
2022-11-11T06:46:17.446Z,36.00
2022-11-11T06:47:14.311Z,40.00
2022-11-11T06:48:13.356Z,44.00
2022-11-11T06:49:13.310Z,44.00
2022-11-11T06:50:13.431Z,48.00
2022-11-11T06:51:13.304Z,52.00
2022-11-11T06:52:13.383Z,56.00
2022-11-11T06:53:13.242Z,64.00
2022-11-11T06:54:13.339Z,68.00
2022-11-11T06:55:13.223Z,72.00
2022-11-11T06:56:13.225Z,76.00
2022-11-11T06:57:13.234Z,84.00
2022-11-11T06:58:13.226Z,88.00
2022-11-11T06:59:13.170Z,92.00
2022-11-11T07:00:13.182Z,100.00
2022-11-11T07:01:13.348Z,108.00
2022-11-11T07:02:13.173Z,112.00
2022-11-11T07:03:13.123Z,120.00
2022-11-11T07:04:13.177Z,124.00
2022-11-11T07:05:13.142Z,132.00
2022-11-11T07:06:13.103Z,136.00
2022-11-11T07:07:13.140Z,144.00
2022-11-11T07:08:13.116Z,148.00
2022-11-11T07:09:13.097Z,156.00
2022-11-11T07:10:13.066Z,164.00
2022-11-11T07:11:18.715Z,168.00
2022-11-11T07:12:14.744Z,176.00
2022-11-11T07:13:13.023Z,184.00
2022-11-11T07:14:13.015Z,192.00
2022-11-11T07:15:13.004Z,200.00
2022-11-11T07:16:13.002Z,208.00
2022-11-11T07:17:12.970Z,220.00
2022-11-11T07:18:12.983Z,224.00
2022-11-11T07:19:12.968Z,232.00
2022-11-11T07:20:12.962Z,244.00
2022-11-11T07:21:12.923Z,252.00
2022-11-11T07:22:12.923Z,260.00
2022-11-11T07:23:12.935Z,268.00
2022-11-11T07:24:12.911Z,280.00
2022-11-11T07:25:12.895Z,288.00
2022-11-11T07:26:12.874Z,296.00
2022-11-11T07:27:12.865Z,304.00
2022-11-11T07:28:12.899Z,312.00
2022-11-11T07:29:12.841Z,324.00
2022-11-11T07:30:12.831Z,332.00
2022-11-11T07:31:12.813Z,344.00
2022-11-11T07:32:13.203Z,352.00
2022-11-11T07:33:12.784Z,360.00
2022-11-11T07:34:12.806Z,372.00
2022-11-11T07:35:12.771Z,380.00
2022-11-11T07:36:12.772Z,392.00
2022-11-11T07:37:12.744Z,404.00
2022-11-11T07:38:12.744Z,412.00
2022-11-11T07:39:12.724Z,424.00
2022-11-11T07:40:12.784Z,432.00
2022-11-11T07:41:12.709Z,444.00
2022-11-11T07:42:30.448Z,456.00
2022-11-11T07:43:13.671Z,468.00
2022-11-11T07:44:12.663Z,476.00
2022-11-11T07:45:12.653Z,484.00
2022-11-11T07:46:12.663Z,496.00
2022-11-11T07:47:12.645Z,504.00
2022-11-11T07:48:12.624Z,520.00
2022-11-11T07:49:12.604Z,524.00
2022-11-11T07:50:12.613Z,540.00
2022-11-11T07:51:12.620Z,544.00
2022-11-11T07:52:12.624Z,552.00
2022-11-11T07:53:12.575Z,564.00
2022-11-11T07:54:12.575Z,572.00
2022-11-11T07:55:12.594Z,584.00
2022-11-11T07:56:12.536Z,588.00
2022-11-11T07:57:12.553Z,596.00
2022-11-11T07:58:12.540Z,604.00
2022-11-11T07:59:12.517Z,612.00
2022-11-11T08:00:12.483Z,620.00
2022-11-11T08:01:12.509Z,628.00
2022-11-11T08:02:12.476Z,636.00
2022-11-11T08:03:12.504Z,648.00
2022-11-11T08:04:12.472Z,660.00
2022-11-11T08:05:13.384Z,664.00
2022-11-11T08:06:12.436Z,676.00
2022-11-11T08:07:12.454Z,684.00
2022-11-11T08:08:12.424Z,692.00
2022-11-11T08:09:12.412Z,700.00
2022-11-11T08:10:12.396Z,712.00
2022-11-11T08:11:12.356Z,716.00
2022-11-11T08:12:12.365Z,728.00
2022-11-11T08:13:12.356Z,740.00
2022-11-11T08:14:12.344Z,748.00
2022-11-11T08:15:12.317Z,756.00
2022-11-11T08:16:12.343Z,764.00
2022-11-11T08:17:12.285Z,772.00
2022-11-11T08:18:12.320Z,784.00
2022-11-11T08:19:12.308Z,792.00
2022-11-11T08:20:12.269Z,800.00
2022-11-11T08:21:12.237Z,812.00
2022-11-11T08:22:12.251Z,816.00
2022-11-11T08:23:45.143Z,828.00
2022-11-11T08:25:01.664Z,840.00
2022-11-11T08:25:13.702Z,848.00
2022-11-11T08:26:12.211Z,856.00
2022-11-11T08:27:12.177Z,868.00
2022-11-11T08:28:12.185Z,872.00
2022-11-11T08:29:12.199Z,884.00
2022-11-11T08:30:12.149Z,892.00
2022-11-11T08:31:12.137Z,896.00
2022-11-11T08:32:12.138Z,912.00
2022-11-11T08:33:32.216Z,924.00
2022-11-11T08:34:13.157Z,940.00
2022-11-11T08:35:12.084Z,952.00
2022-11-11T08:36:16.245Z,968.00
2022-11-11T08:37:13.087Z,996.00
2022-11-11T08:38:12.070Z,1008.00
2022-11-11T08:39:12.115Z,1004.00
2022-11-11T08:40:12.074Z,996.00
2022-11-11T08:41:12.026Z,1004.00
2022-11-11T08:42:12.017Z,1024.00
2022-11-11T08:43:12.013Z,1032.00
2022-11-11T08:44:12.030Z,1048.00
2022-11-11T08:45:12.021Z,1092.00
2022-11-11T08:46:12.038Z,1056.00
2022-11-11T08:47:12.006Z,1028.00
2022-11-11T08:48:11.969Z,1016.00
2022-11-11T08:49:11.924Z,1016.00
2022-11-11T08:50:11.937Z,1016.00
2022-11-11T08:51:11.917Z,1020.00
2022-11-11T08:52:11.938Z,1020.00
2022-11-11T08:53:11.886Z,1020.00
2022-11-11T08:54:11.885Z,1024.00
2022-11-11T08:55:11.885Z,1024.00
2022-11-11T08:56:11.870Z,1036.00
2022-11-11T08:57:11.994Z,1040.00
2022-11-11T08:58:16.091Z,1040.00
2022-11-11T08:59:12.830Z,1044.00
2022-11-11T09:00:11.830Z,1052.00
2022-11-11T09:01:11.852Z,1056.00
2022-11-11T09:02:11.789Z,1064.00
2022-11-11T09:03:11.790Z,1068.00
2022-11-11T09:04:38.274Z,1076.00
2022-11-11T09:05:12.765Z,1080.00
2022-11-11T09:06:11.758Z,1068.00
2022-11-11T09:07:11.784Z,1064.00
2022-11-11T09:08:11.738Z,1072.00
2022-11-11T09:09:11.731Z,1080.00
2022-11-11T09:10:11.703Z,1084.00
2022-11-11T09:11:11.678Z,1084.00
2022-11-11T09:12:11.690Z,1084.00
2022-11-11T09:13:11.671Z,1088.00
2022-11-11T09:14:11.686Z,1100.00
2022-11-11T09:15:11.642Z,1112.00
2022-11-11T09:16:11.639Z,1112.00
2022-11-11T09:17:11.610Z,1124.00
2022-11-11T09:18:11.658Z,1136.00
2022-11-11T09:19:11.611Z,1148.00
2022-11-11T09:20:11.598Z,1152.00
2022-11-11T09:21:11.577Z,1148.00
2022-11-11T09:22:11.578Z,1156.00
2022-11-11T09:23:11.549Z,1164.00
2022-11-11T09:24:11.569Z,1168.00
2022-11-11T09:25:11.538Z,1176.00
2022-11-11T09:26:11.544Z,1188.00
2022-11-11T09:27:11.512Z,1196.00
2022-11-11T09:28:11.526Z,1208.00
2022-11-11T09:29:11.478Z,1216.00
2022-11-11T09:30:11.480Z,1228.00
2022-11-11T09:31:38.042Z,1236.00
2022-11-11T09:32:12.438Z,1236.00
2022-11-11T09:33:11.441Z,1232.00
2022-11-11T09:34:11.431Z,1224.00
2022-11-11T09:35:11.473Z,1220.00
2022-11-11T09:36:11.434Z,1220.00
2022-11-11T09:37:11.397Z,1224.00
2022-11-11T09:38:11.381Z,1220.00
2022-11-11T09:39:11.370Z,1216.00
2022-11-11T09:40:11.350Z,1220.00
2022-11-11T09:41:11.389Z,1236.00
2022-11-11T09:42:11.362Z,1240.00
2022-11-11T09:43:11.330Z,1236.00
2022-11-11T09:44:11.310Z,1240.00
2022-11-11T09:45:11.311Z,1248.00
2022-11-11T09:46:11.298Z,1256.00
2022-11-11T09:47:11.302Z,1260.00
2022-11-11T09:48:11.316Z,1280.00
2022-11-11T09:49:11.282Z,1296.00
2022-11-11T09:50:11.245Z,1300.00
2022-11-11T09:51:11.231Z,1300.00
2022-11-11T09:52:11.215Z,1304.00
2022-11-11T09:53:11.243Z,1312.00
2022-11-11T09:54:11.210Z,1308.00
2022-11-11T09:55:11.209Z,1320.00
2022-11-11T09:56:29.658Z,1332.00
2022-11-11T09:57:12.184Z,1348.00
2022-11-11T09:58:11.151Z,1360.00
2022-11-11T09:59:11.150Z,1364.00
2022-11-11T10:00:11.155Z,1372.00
2022-11-11T10:01:11.286Z,1392.00
2022-11-11T10:02:11.103Z,1412.00
2022-11-11T10:03:11.102Z,1416.00
2022-11-11T10:04:11.083Z,1428.00
2022-11-11T10:05:11.112Z,1432.00
2022-11-11T10:06:11.091Z,1448.00
2022-11-11T10:07:11.118Z,1456.00
2022-11-11T10:08:11.042Z,1444.00
2022-11-11T10:09:11.056Z,1456.00
2022-11-11T10:10:11.011Z,1460.00
2022-11-11T10:11:11.032Z,1476.00
2022-11-11T10:12:10.997Z,1496.00
2022-11-11T10:13:10.997Z,1516.00
2022-11-11T10:14:10.983Z,1540.00
2022-11-11T10:15:10.982Z,1552.00
2022-11-11T10:16:10.970Z,1556.00
2022-11-11T10:17:10.970Z,1552.00
2022-11-11T10:18:16.155Z,1536.00
2022-11-11T10:19:11.930Z,1532.00
2022-11-11T10:20:10.914Z,1516.00
2022-11-11T10:21:10.924Z,1520.00
2022-11-11T10:22:13.311Z,1504.00
2022-11-11T10:23:10.875Z,1508.00
2022-11-11T10:24:10.863Z,1496.00
2022-11-11T10:25:10.863Z,1500.00
2022-11-11T10:26:10.863Z,1508.00
2022-11-11T10:27:10.855Z,1532.00
2022-11-11T10:28:10.814Z,1536.00
2022-11-11T10:29:10.815Z,1536.00
2022-11-11T10:30:10.807Z,1548.00
2022-11-11T10:31:10.815Z,1560.00
2022-11-11T10:32:10.763Z,1556.00
2022-11-11T10:33:10.767Z,1556.00
2022-11-11T10:34:10.742Z,1572.00
2022-11-11T10:35:10.756Z,1580.00
2022-11-11T10:36:10.738Z,1576.00
2022-11-11T10:37:10.723Z,1584.00
2022-11-11T10:38:10.716Z,1584.00
2022-11-11T10:39:10.725Z,1612.00
2022-11-11T10:40:10.689Z,1636.00
2022-11-11T10:41:10.684Z,1628.00
2022-11-11T10:42:10.682Z,1632.00
2022-11-11T10:43:10.656Z,1628.00
2022-11-11T10:44:10.638Z,1640.00
2022-11-11T10:45:10.627Z,1636.00
2022-11-11T10:46:10.665Z,1636.00
2022-11-11T10:47:10.594Z,1616.00
2022-11-11T10:48:10.595Z,1628.00
2022-11-11T10:49:10.617Z,1628.00
2022-11-11T10:50:10.574Z,1628.00
2022-11-11T10:51:10.554Z,1612.00
2022-11-11T10:52:10.590Z,1604.00
2022-11-11T10:53:10.547Z,1592.00
2022-11-11T10:54:10.518Z,1592.00
2022-11-11T10:55:10.543Z,1584.00
2022-11-11T10:56:10.488Z,1576.00
2022-11-11T10:57:10.510Z,1568.00
2022-11-11T10:58:10.487Z,1564.00
2022-11-11T10:59:10.475Z,1572.00
2022-11-11T11:00:10.457Z,1564.00
2022-11-11T11:01:10.516Z,1564.00
2022-11-11T11:02:10.435Z,1556.00
2022-11-11T11:03:10.429Z,1560.00
2022-11-11T11:04:10.415Z,1512.00
2022-11-11T11:05:10.427Z,1540.00
2022-11-11T11:06:10.377Z,1668.00
2022-11-11T11:07:10.415Z,1672.00
2022-11-11T11:08:10.367Z,1680.00
2022-11-11T11:09:10.359Z,1664.00
2022-11-11T11:10:10.367Z,1652.00
2022-11-11T11:11:10.355Z,1628.00
2022-11-11T11:12:10.319Z,1600.00
2022-11-11T11:13:10.323Z,1560.00
2022-11-11T11:14:10.320Z,1552.00
2022-11-11T11:15:10.301Z,1584.00
2022-11-11T11:16:10.271Z,1616.00
2022-11-11T11:17:10.281Z,1588.00
2022-11-11T11:18:10.248Z,1624.00
2022-11-11T11:19:10.249Z,1656.00
2022-11-11T11:20:10.248Z,1664.00
2022-11-11T11:21:10.219Z,1656.00
2022-11-11T11:22:10.203Z,1672.00
2022-11-11T11:23:10.207Z,1700.00
2022-11-11T11:24:10.180Z,1688.00
2022-11-11T11:25:10.168Z,1700.00
2022-11-11T11:26:10.184Z,1708.00
2022-11-11T11:27:10.168Z,1676.00
2022-11-11T11:28:10.168Z,1684.00
2022-11-11T11:29:10.139Z,1668.00
2022-11-11T11:30:14.568Z,1656.00
2022-11-11T11:31:11.139Z,1656.00
2022-11-11T11:32:10.119Z,1700.00
2022-11-11T11:33:10.099Z,1720.00
2022-11-11T11:34:10.111Z,1712.00
2022-11-11T11:35:10.093Z,1720.00
2022-11-11T11:36:10.060Z,1728.00
2022-11-11T11:37:10.054Z,1732.00
2022-11-11T11:38:10.056Z,1700.00
2022-11-11T11:39:10.033Z,1696.00
2022-11-11T11:40:10.022Z,1704.00
2022-11-11T11:41:10.021Z,1712.00
2022-11-11T11:42:09.993Z,1704.00
2022-11-11T11:43:09.982Z,1676.00
2022-11-11T11:44:09.952Z,1696.00
2022-11-11T11:45:10.000Z,1688.00
2022-11-11T11:46:09.944Z,1684.00
2022-11-11T11:47:09.943Z,1692.00
2022-11-11T11:48:41.215Z,1684.00
2022-11-11T11:49:10.931Z,1640.00
2022-11-11T11:50:09.900Z,1600.00
2022-11-11T11:51:09.892Z,1588.00
2022-11-11T11:52:09.875Z,1580.00
2022-11-11T11:53:09.872Z,1560.00
2022-11-11T11:54:09.853Z,1556.00
2022-11-11T11:55:09.845Z,1588.00
2022-11-11T11:56:09.812Z,1616.00
2022-11-11T11:57:09.833Z,1656.00
2022-11-11T11:58:09.796Z,1716.00
2022-11-11T11:59:09.933Z,1796.00
2022-11-11T12:00:09.772Z,1792.00
2022-11-11T12:01:09.774Z,1788.00
2022-11-11T12:02:09.806Z,1788.00
2022-11-11T12:03:09.756Z,1780.00
2022-11-11T12:04:09.743Z,1764.00
2022-11-11T12:05:09.724Z,1784.00
2022-11-11T12:06:09.712Z,1816.00
2022-11-11T12:07:09.834Z,1812.00
2022-11-11T12:08:09.695Z,1816.00
2022-11-11T12:09:09.684Z,1800.00
2022-11-11T12:10:10.148Z,1772.00
2022-11-11T12:11:09.685Z,1772.00
2022-11-11T12:12:09.686Z,1780.00
2022-11-11T12:13:09.636Z,1768.00
2022-11-11T12:14:09.616Z,1784.00
2022-11-11T12:15:09.636Z,1784.00
2022-11-11T12:16:09.593Z,1784.00
2022-11-11T12:17:09.598Z,1784.00
2022-11-11T12:18:09.585Z,1808.00
2022-11-11T12:19:09.604Z,1804.00
2022-11-11T12:20:09.556Z,1808.00
2022-11-11T12:21:09.545Z,1808.00
2022-11-11T12:22:09.536Z,1816.00
2022-11-11T12:23:09.534Z,1796.00
2022-11-11T12:24:09.517Z,1760.00
2022-11-11T12:25:10.437Z,1724.00
2022-11-11T12:26:09.484Z,1752.00
2022-11-11T12:27:09.520Z,1720.00
2022-11-11T12:28:09.449Z,1736.00
2022-11-11T12:29:09.469Z,1780.00
2022-11-11T12:30:09.444Z,1800.00
2022-11-11T12:31:09.449Z,1808.00
2022-11-11T12:32:09.408Z,1800.00
2022-11-11T12:33:09.409Z,1764.00
2022-11-11T12:34:09.385Z,1764.00
2022-11-11T12:35:09.404Z,1776.00
2022-11-11T12:36:09.375Z,1800.00
2022-11-11T12:37:09.407Z,1816.00
2022-11-11T12:38:09.372Z,1816.00
2022-11-11T12:39:09.341Z,1780.00
2022-11-11T12:40:09.342Z,1788.00
2022-11-11T12:41:09.321Z,1788.00
2022-11-11T12:42:09.298Z,1800.00
2022-11-11T12:43:09.297Z,1792.00
2022-11-11T12:44:09.300Z,1812.00
2022-11-11T12:45:09.262Z,1776.00
2022-11-11T12:46:09.278Z,1800.00